메인 페이지
METAR-TAF:

METAR-TAF

공항 :

Sioux Gateway Airport (Col. Bud Day Field)

수시티, 아이오와, 미국

위도: 42-24-09N, 경도: 096-23-04W, 고도: 335m

현재 날씨관측

예보는 48분 전, 15:52시(UTC)에 발표되었습니다.
무풍
온도 7°C
습도 70%
기압 1020 hPa
시정: 16.1km
맑음

METAR: KSUX 051552Z 00000KT 10SM CLR 07/02 A3011 RMK AO2 SLP204 T00670017

시각: 11:40 (16:40 UTC)

예보

예보는 5 시간 20분 전, 11:20시(UTC)에 발표되었습니다.
예보 대상 시간: 05일 12시부터 06일 12시까지 (UTC)
동남동5kt
시정: 10km
맑음
05일 1900시부터 (UTC)
남남동12kt, 순간 최대 풍속 17kt
시정: 10km
고도 25000ft 상공 구름 조금
06일 0300시부터 (UTC)
남동9kt
시정: 10km
고도 25000ft 상공 구름 조금
06일 0900시부터 (UTC)
남남동9kt
시정: 10km
고도 2500ft 상공 구름 많음
06일 1000시부터 (UTC)
남남동8kt
시정: 10km
고도 1100ft 상공 구름 많음

TAF: KSUX 051120Z 0512/0612 12005KT P6SM SKC FM051900 16012G17KT P6SM FEW250 FM060300 14009KT P6SM FEW250 FM060900 16009KT P6SM BKN025 FM061000 16008KT P6SM BKN011

4,000개 이상의 공항 관측 자료 및 예보 (METAR 및 TAF 보고).

지도상에서 검색 가능한 기상관측소가 노란 점과 빨간 점으로 표시되어 있습니다.

기상관측소 명을 보려면 표시 위로 마우스를 이동하세요.

날씨 관측과 예보를 보려면 클릭하세요.

지도 변경 : 확대하려면 엑스 표시가 있는 녹색 버튼, 축소하려면 빼기 표시가 있는 녹색 버튼, 다음 페이지의 지도를 보려면 녹색 화살표를 클릭하세요.


METAR-TAF: